Terminal Aerodrome Forecast
Issued by NWS Bismarck, ND

Home | Current Version | Previous Version | Text Only | Print | Product List | Glossary On
Versions: 1 2 3 4 5 6 7 8 9 10 11 12 13 14 15 16 17
000
FTUS43 KBIS 042328
TAFISN
TAF
KISN 042328Z 0500/0524 14011KT P6SM SCT250
     FM050300 12008KT P6SM SCT100 BKN250
     FM050700 12010KT P6SM VCTS SCT060CB BKN100
     FM051100 21008KT P6SM FEW025 SCT100
     FM051800 26007KT P6SM SCT100=

USA.gov is the U.S. government's official web portal to all federal, state and local government web resources and services.